Time;durP1;ratioP1;P1;durP2;ratioP2;P2;SDS_P1;SDS_P2;PMS_P1;PMS_P2;Temp;Humidity;BMP_temperature;BMP_pressure;BME280_temperature;BME280_humidity;BME280_pressure;Samples;Min_cycle;Max_cycle;Signal;HPM_P1;HPM_P2
2022/07/29 12:05:19;;;;;;;6.30;3.75;;;22.90;91.60;;;;;;6244727;22;1210522;-75
2022/07/29 12:07:45;;;;;;;10.40;4.20;;;22.40;92.00;;;;;;6256922;22;20003;-78
2022/07/29 12:10:10;;;;;;;10.07;4.55;;;22.40;92.40;;;;;;6257944;22;20425;-76
2022/07/29 12:12:36;;;;;;;7.97;4.13;;;22.30;92.70;;;;;;6284235;22;20008;-76
2022/07/29 12:15:17;;;;;;;8.38;3.83;;;22.40;94.10;;;;;;6284082;22;20070;-75
2022/07/29 12:18:29;;;;;;;11.60;4.75;;;23.00;94.20;;;;;;6281751;22;20333;-78
2022/07/29 12:21:04;;;;;;;11.45;5.88;;;22.50;92.90;;;;;;6278379;22;20365;-76
2022/07/29 12:23:30;;;;;;;9.00;5.80;;;22.50;92.40;;;;;;6282174;22;20086;-76
2022/07/29 12:25:57;;;;;;;11.38;5.72;;;22.40;92.40;;;;;;6257290;22;20137;-75
2022/07/29 12:28:22;;;;;;;11.23;5.57;;;23.10;93.40;;;;;;6229884;22;20030;-76
2022/07/29 12:30:48;;;;;;;13.13;6.80;;;22.40;92.80;;;;;;6281756;22;20417;-78
2022/07/29 12:33:24;;;;;;;11.43;5.63;;;23.20;92.80;;;;;;6256915;22;20074;-78
2022/07/29 12:35:55;;;;;;;9.43;5.65;;;22.40;92.90;;;;;;6231313;22;19999;-78
2022/07/29 12:38:20;;;;;;;8.90;5.28;;;22.90;92.70;;;;;;6255166;22;20341;-78
2022/07/29 12:40:47;;;;;;;14.43;5.70;;;23.20;92.70;;;;;;6282401;22;20006;-78
2022/07/29 12:43:14;;;;;;;10.82;6.07;;;22.70;92.70;;;;;;6255590;22;20004;-78
2022/07/29 12:45:41;;;;;;;9.43;4.80;;;23.00;93.50;;;;;;6256097;22;20000;-78
2022/07/29 12:48:08;;;;;;;8.63;5.05;;;23.00;93.50;;;;;;6283128;22;20429;-78
2022/07/29 12:50:35;;;;;;;10.20;4.72;;;22.50;92.60;;;;;;6282946;22;20004;-78
2022/07/29 12:53:13;;;;;;;7.43;4.38;;;23.40;93.40;;;;;;6230702;22;20004;-80
2022/07/29 12:55:44;;;;;;;8.88;4.68;;;22.80;91.90;;;;;;6256306;22;20424;-78
2022/07/29 12:58:09;;;;;;;8.98;4.30;;;22.60;91.60;;;;;;6255926;22;20030;-78
2022/07/29 13:00:35;;;;;;;7.13;4.35;;;22.60;92.20;;;;;;6283076;22;20000;-77
2022/07/29 13:37:07;;;;;;;7.05;4.43;;;22.80;89.00;;;;;;6215608;23;20052;-80
2022/07/29 13:46:22;;;;;;;8.98;4.03;;;22.30;88.90;;;;;;6215728;23;20008;-82
2022/07/29 15:03:10;;;;;;;9.18;3.90;;;23.30;80.10;;;;;;6189471;22;20092;-75
2022/07/29 15:05:35;;;;;;;5.63;3.35;;;23.30;80.90;;;;;;6268259;22;20008;-73
2022/07/29 15:08:01;;;;;;;5.47;3.13;;;23.40;81.00;;;;;;6267237;22;20758;-74
2022/07/29 15:10:26;;;;;;;4.97;3.13;;;23.40;80.30;;;;;;6242871;23;20007;-74
2022/07/29 15:12:52;;;;;;;6.15;2.90;;;23.50;80.40;;;;;;6243426;23;20005;-74
2022/07/29 15:15:18;;;;;;;6.45;3.47;;;24.00;80.60;;;;;;6243279;23;20405;-75
2022/07/29 15:17:44;;;;;;;6.82;3.10;;;23.60;79.50;;;;;;6244497;23;20474;-74
2022/07/29 15:20:10;;;;;;;7.60;3.47;;;23.60;79.00;;;;;;6243173;23;20488;-74
2022/07/29 15:22:37;;;;;;;8.65;3.72;;;23.60;79.40;;;;;;6244133;22;20340;-74
2022/07/29 15:25:04;;;;;;;7.35;3.97;;;23.60;79.30;;;;;;6242995;23;20019;-76
2022/07/29 15:27:29;;;;;;;16.40;4.55;;;23.70;80.50;;;;;;6244522;22;20055;-74
2022/07/29 15:29:55;;;;;;;25.40;6.47;;;23.80;80.90;;;;;;6244596;23;20004;-74
2022/07/29 15:32:20;;;;;;;23.50;7.57;;;24.00;91.90;;;;;;6244560;23;20001;-74
2022/07/29 15:34:47;;;;;;;41.08;12.25;;;24.50;95.60;;;;;;6244594;23;20381;-73
2022/07/29 15:37:15;;;;;;;44.42;12.45;;;24.40;99.90;;;;;;6244675;23;20027;-85
2022/07/29 15:39:42;;;;;;;54.42;10.43;;;24.60;99.90;;;;;;6243500;23;20000;-81
2022/07/29 15:42:08;;;;;;;12.52;4.68;;;25.00;99.90;;;;;;6241090;23;20377;-77
2022/07/29 15:44:33;;;;;;;8.55;3.78;;;25.20;96.60;;;;;;6242983;23;20028;-77
2022/07/29 16:04:56;;;;;;;7.57;3.78;;;24.30;84.90;;;;;;6295583;22;20074;-85
2022/07/29 16:07:21;;;;;;;12.17;4.50;;;24.40;86.00;;;;;;6213518;23;20011;-74
2022/07/29 16:09:47;;;;;;;9.88;4.55;;;24.80;82.40;;;;;;6211962;23;20008;-75
2022/07/29 16:12:13;;;;;;;7.05;4.40;;;25.00;83.20;;;;;;6212925;23;20005;-76
2022/07/29 16:15:06;;;;;;;7.45;4.20;;;24.90;86.20;;;;;;6214538;23;20001;-76
2022/07/29 16:17:31;;;;;;;5.35;3.25;;;25.10;81.40;;;;;;6210591;23;20015;-77
2022/07/29 16:19:57;;;;;;;5.40;3.58;;;25.20;79.40;;;;;;6212404;23;20032;-76
2022/07/29 16:22:22;;;;;;;6.15;3.17;;;25.20;79.90;;;;;;6214102;23;20304;-78
2022/07/29 16:24:48;;;;;;;3.08;2.78;;;25.40;78.30;;;;;;6213009;23;20521;-80
2022/07/29 16:27:13;;;;;;;5.43;3.40;;;25.90;79.30;;;;;;6187668;23;20431;-74
2022/07/29 16:29:46;;;;;;;4.10;2.60;;;26.70;74.00;;;;;;6214133;23;20005;-77
2022/07/29 16:32:12;;;;;;;6.95;3.17;;;26.50;71.40;;;;;;6212572;23;20005;-76
2022/07/29 16:34:38;;;;;;;7.60;3.05;;;25.90;74.30;;;;;;6212245;23;20016;-75
2022/07/29 16:37:27;;;;;;;4.18;2.53;;;25.30;67.50;;;;;;6212106;23;20424;-75
2022/07/29 16:39:52;;;;;;;3.78;2.30;;;24.80;68.10;;;;;;6213174;23;20001;-75
2022/07/29 16:42:18;;;;;;;3.17;2.47;;;25.20;71.50;;;;;;6216227;23;20001;-75
2022/07/29 16:44:43;;;;;;;4.57;2.10;;;24.50;69.20;;;;;;6216013;23;20019;-74
2022/07/29 17:05:56;;;;;;;5.50;2.95;;;24.30;73.80;;;;;;6211851;22;20070;-72
2022/07/29 17:08:21;;;;;;;3.55;3.00;;;24.30;73.00;;;;;;6245877;23;20008;-73
2022/07/29 17:10:47;;;;;;;6.80;2.90;;;24.30;73.70;;;;;;6244947;23;20007;-74
2022/07/29 17:15:57;;;;;;;6.32;3.17;;;24.50;74.10;;;;;;6244833;23;20012;-73
2022/07/29 17:18:22;;;;;;;6.70;3.25;;;24.50;75.40;;;;;;6246071;23;20004;-73
2022/07/29 17:20:48;;;;;;;4.05;2.85;;;24.50;74.50;;;;;;6246146;23;20374;-73
2022/07/29 17:23:13;;;;;;;8.48;2.30;;;24.50;74.50;;;;;;6245547;23;20039;-73
2022/07/29 17:25:39;;;;;;;8.88;3.05;;;24.60;73.90;;;;;;6236993;23;20039;-73
2022/07/29 17:28:04;;;;;;;3.88;2.85;;;24.60;74.30;;;;;;6234545;23;20501;-74
2022/07/29 17:30:30;;;;;;;6.32;2.88;;;24.50;76.50;;;;;;6236298;23;20023;-73
2022/07/29 17:32:55;;;;;;;3.63;2.53;;;25.20;75.20;;;;;;6243640;23;20000;-73
2022/07/29 17:38:05;;;;;;;5.73;2.70;;;24.70;73.30;;;;;;6245558;23;20007;-73
2022/07/29 17:40:31;;;;;;;6.10;3.40;;;24.50;72.90;;;;;;6245576;23;20219;-73
2022/07/29 18:40:29;;;;;;;3.45;2.75;;;23.80;76.20;;;;;;6097420;22;20272;-73
2022/07/29 18:42:55;;;;;;;5.32;3.10;;;23.80;76.70;;;;;;6268784;22;20011;-73
2022/07/29 18:45:20;;;;;;;4.82;3.55;;;24.20;79.10;;;;;;6269513;22;20003;-73
2022/07/29 18:47:48;;;;;;;6.70;3.78;;;23.70;76.90;;;;;;6266294;22;20006;-73
2022/07/29 18:50:14;;;;;;;6.57;3.78;;;23.70;77.20;;;;;;6243557;22;20023;-73
2022/07/29 18:52:39;;;;;;;6.03;3.78;;;23.90;77.80;;;;;;6242637;22;20069;-73
2022/07/29 18:55:05;;;;;;;4.22;3.28;;;23.70;78.80;;;;;;6270760;22;20078;-73
2022/07/29 18:57:31;;;;;;;6.75;3.40;;;23.70;78.90;;;;;;6273187;22;20010;-73
2022/07/29 18:59:56;;;;;;;11.95;3.13;;;23.70;78.30;;;;;;6272967;22;20375;-73
2022/07/29 19:02:22;;;;;;;4.93;3.47;;;23.60;78.50;;;;;;6271024;22;20031;-73
2022/07/29 19:04:49;;;;;;;5.05;3.28;;;23.60;77.90;;;;;;6245436;22;20012;-73
2022/07/29 19:07:33;;;;;;;5.75;3.00;;;23.60;78.60;;;;;;6245424;22;20003;-85
2022/07/29 19:09:58;;;;;;;5.40;3.10;;;23.60;79.30;;;;;;6266902;22;20061;-75
2022/07/29 19:12:24;;;;;;;4.82;2.80;;;23.60;78.50;;;;;;6273137;22;20320;-74
2022/07/29 19:14:50;;;;;;;6.32;2.85;;;23.50;79.50;;;;;;6245707;22;20004;-75
2022/07/29 19:17:15;;;;;;;5.70;2.70;;;23.60;78.70;;;;;;6246331;22;20010;-74
2022/07/29 19:19:41;;;;;;;4.93;3.17;;;23.50;78.40;;;;;;6274201;22;20026;-74
